createdAt,value
2019-05-09T00:01:08.012Z,62306.73
2019-05-09T00:03:34.257Z,62304.57
2019-05-09T00:06:00.495Z,62301.46
2019-05-09T00:08:26.724Z,62305.73
2019-05-09T00:10:53.579Z,62301.46
2019-05-09T00:13:19.907Z,62294.61
2019-05-09T00:15:46.153Z,62293.20
2019-05-09T00:18:14.302Z,62289.62
2019-05-09T00:20:48.187Z,62285.22
2019-05-09T00:23:14.421Z,62291.23
2019-05-09T00:25:40.672Z,62283.10
2019-05-09T00:28:07.114Z,62270.65
2019-05-09T00:30:43.899Z,62250.55
2019-05-09T00:33:10.333Z,62246.08
2019-05-09T00:35:37.062Z,62244.47
2019-05-09T00:38:04.613Z,62252.50
2019-05-09T00:40:30.832Z,62248.32
2019-05-09T00:42:57.096Z,62242.84
2019-05-09T00:45:25.245Z,62239.74
2019-05-09T00:47:53.866Z,62242.84
2019-05-09T00:50:19.618Z,62246.97
2019-05-09T00:52:45.874Z,62253.34
2019-05-09T00:55:13.210Z,62259.15
2019-05-09T00:57:39.548Z,62262.40
2019-05-09T01:00:14.648Z,62266.93
2019-05-09T01:02:40.786Z,62264.49
2019-05-09T01:05:07.241Z,62273.64
2019-05-09T01:07:33.770Z,62275.00
2019-05-09T01:10:00.024Z,62282.23
2019-05-09T01:12:26.261Z,62282.17
2019-05-09T01:14:53.898Z,62285.83
2019-05-09T01:17:20.246Z,62286.29
2019-05-09T01:19:46.795Z,62293.74
2019-05-09T01:22:13.313Z,62297.18
2019-05-09T01:24:39.675Z,62302.81
2019-05-09T01:27:05.916Z,62305.32
2019-05-09T01:29:33.744Z,62312.36
2019-05-09T01:32:03.558Z,62315.54
2019-05-09T01:34:33.126Z,62327.40
2019-05-09T01:37:06.384Z,62336.19
2019-05-09T01:39:35.888Z,62328.08
2019-05-09T01:42:03.266Z,62333.29
2019-05-09T01:44:29.781Z,62335.45
2019-05-09T01:46:56.007Z,62347.99
2019-05-09T01:49:23.238Z,62360.05
2019-05-09T01:51:49.626Z,62358.41
2019-05-09T01:54:17.255Z,62362.56
2019-05-09T01:56:43.501Z,62372.86
2019-05-09T01:59:09.723Z,62379.90
2019-05-09T02:01:35.970Z,62382.54
2019-05-09T02:04:04.111Z,62392.91
2019-05-09T02:06:30.350Z,62401.04
2019-05-09T02:08:56.588Z,62406.46
2019-05-09T02:11:23.842Z,62409.51
2019-05-09T02:13:50.348Z,62416.56
2019-05-09T02:16:27.008Z,62422.52
2019-05-09T02:19:00.609Z,62427.96
2019-05-09T02:21:26.854Z,62431.21
2019-05-09T02:23:53.783Z,62443.83
2019-05-09T02:26:20.130Z,62456.58
2019-05-09T02:28:46.364Z,62451.14
2019-05-09T02:31:16.142Z,62456.03
2019-05-09T02:33:40.744Z,62460.16
2019-05-09T02:36:09.650Z,62466.67
2019-05-09T02:38:35.180Z,62474.48
2019-05-09T02:41:01.404Z,62479.70
2019-05-09T02:43:29.153Z,62485.86
2019-05-09T02:46:03.382Z,62491.85
2019-05-09T02:48:29.617Z,62508.13
2019-05-09T02:50:55.863Z,62501.61
2019-05-09T02:53:22.107Z,62509.41
2019-05-09T02:55:49.499Z,62512.66
2019-05-09T02:58:20.274Z,62514.23
2019-05-09T03:00:53.569Z,62522.23
2019-05-09T03:03:21.606Z,62525.09
2019-05-09T03:05:48.788Z,62539.15
2019-05-09T03:08:15.214Z,62541.99
2019-05-09T03:10:41.433Z,62546.89
2019-05-09T03:13:09.401Z,62548.11
2019-05-09T03:15:39.134Z,62552.43
2019-05-09T03:18:03.958Z,62559.91
2019-05-09T03:20:49.387Z,62567.17
2019-05-09T03:23:18.865Z,62581.45
2019-05-09T03:25:44.199Z,62578.51
2019-05-09T03:28:21.068Z,62585.57
2019-05-09T03:30:51.629Z,62596.51
2019-05-09T03:33:20.144Z,62600.25
2019-05-09T03:35:48.095Z,62605.67
2019-05-09T03:38:14.136Z,62619.67
2019-05-09T03:40:40.372Z,62626.88
2019-05-09T03:43:07.969Z,62635.91
2019-05-09T03:45:42.150Z,62642.83
2019-05-09T03:48:10.189Z,62656.51
2019-05-09T03:50:38.301Z,62663.29
2019-05-09T03:53:04.583Z,62677.30
2019-05-09T03:55:32.617Z,62689.81
2019-05-09T03:58:00.660Z,62697.76
2019-05-09T04:00:28.359Z,62709.51
2019-05-09T04:02:54.829Z,62720.39
2019-05-09T04:05:21.075Z,62738.96
2019-05-09T04:07:47.982Z,62755.23
2019-05-09T04:10:14.264Z,62779.37
2019-05-09T04:12:52.884Z,62797.68
2019-05-09T04:15:08.642Z,62809.32
2019-05-09T04:17:38.187Z,62829.80
2019-05-09T04:20:04.745Z,62867.73
2019-05-09T04:22:30.994Z,62928.10
2019-05-09T04:24:57.721Z,62927.55
2019-05-09T04:27:29.670Z,62918.89
2019-05-09T04:29:54.125Z,62913.70
2019-05-09T04:32:20.359Z,62912.70
2019-05-09T04:34:47.320Z,62917.19
2019-05-09T04:37:13.668Z,62924.55
2019-05-09T04:39:40.738Z,62929.84
2019-05-09T04:42:08.324Z,62948.80
2019-05-09T04:44:37.472Z,62968.65
2019-05-09T04:47:04.080Z,62989.57
2019-05-09T04:49:39.288Z,63003.75
2019-05-09T04:51:58.624Z,63013.71
2019-05-09T04:54:24.862Z,63028.65
2019-05-09T04:56:53.774Z,63048.71
2019-05-09T04:59:19.247Z,63070.55
2019-05-09T05:01:50.089Z,63071.85
2019-05-09T05:04:18.086Z,63094.24
2019-05-09T05:06:44.505Z,63089.04
2019-05-09T05:09:10.737Z,63079.74
2019-05-09T05:11:38.317Z,63095.58
2019-05-09T05:14:04.722Z,63133.03
2019-05-09T05:16:31.159Z,63224.43
2019-05-09T05:18:58.385Z,63331.75
2019-05-09T05:21:24.844Z,63378.89
2019-05-09T05:23:57.606Z,63439.85
2019-05-09T05:26:23.810Z,63487.18
2019-05-09T05:28:50.047Z,63447.20
2019-05-09T05:31:18.088Z,63382.02
2019-05-09T05:33:49.011Z,63391.52
2019-05-09T05:36:19.132Z,63377.06
2019-05-09T05:38:47.832Z,63455.41
2019-05-09T05:41:13.528Z,63490.36
2019-05-09T05:43:44.395Z,63552.31
2019-05-09T05:46:28.527Z,63601.50
2019-05-09T05:48:57.811Z,63670.40
2019-05-09T05:51:24.124Z,63746.66
2019-05-09T05:53:50.379Z,63774.60
2019-05-09T05:56:17.633Z,63822.87
2019-05-09T05:58:44.170Z,63874.23
2019-05-09T06:01:10.412Z,63859.48
2019-05-09T06:03:37.661Z,63873.98
2019-05-09T06:06:04.181Z,63862.45
2019-05-09T06:08:30.430Z,63881.70
2019-05-09T06:10:57.608Z,63885.13
2019-05-09T06:13:24.124Z,63891.62
2019-05-09T06:15:50.353Z,63910.12
2019-05-09T06:18:18.373Z,63850.03
2019-05-09T06:20:45.677Z,63899.09
2019-05-09T06:23:12.895Z,63951.82
2019-05-09T06:25:39.136Z,63985.97
2019-05-09T06:28:07.491Z,64031.67
2019-05-09T06:30:33.637Z,64066.41
2019-05-09T06:32:59.951Z,64074.13
2019-05-09T06:35:28.247Z,64039.83
2019-05-09T06:37:54.553Z,64072.26
2019-05-09T06:40:24.342Z,64092.53
2019-05-09T06:42:50.855Z,64081.29
2019-05-09T06:45:32.670Z,64014.49
2019-05-09T06:48:00.452Z,63954.36
2019-05-09T06:50:27.357Z,63894.92
2019-05-09T06:52:53.708Z,63836.82
2019-05-09T06:55:19.950Z,63818.12
2019-05-09T06:57:48.696Z,63793.50
2019-05-09T07:00:28.705Z,63786.24
2019-05-09T07:03:00.840Z,63747.76
2019-05-09T07:05:31.946Z,63751.61
2019-05-09T07:08:14.781Z,63741.63
2019-05-09T07:10:41.060Z,63731.27
2019-05-09T07:13:07.956Z,63696.67
2019-05-09T07:15:34.329Z,63683.94
2019-05-09T07:18:00.581Z,63674.71
2019-05-09T07:20:28.446Z,63667.36
2019-05-09T07:22:55.157Z,63682.09
2019-05-09T07:25:23.217Z,63698.86
2019-05-09T07:27:49.469Z,63689.54
2019-05-09T07:30:24.375Z,63706.23
2019-05-09T07:32:52.445Z,63677.58
2019-05-09T07:35:18.813Z,63671.97
2019-05-09T07:37:45.104Z,63669.00
2019-05-09T07:40:11.463Z,63656.59
2019-05-09T07:42:39.126Z,63645.84
2019-05-09T07:45:05.636Z,63654.17
2019-05-09T07:47:31.863Z,63656.27
2019-05-09T07:49:58.617Z,63654.40
2019-05-09T07:52:24.947Z,63708.54
2019-05-09T07:54:51.189Z,63797.03
2019-05-09T07:57:18.161Z,63819.68
2019-05-09T07:59:44.683Z,63827.14
2019-05-09T08:02:10.914Z,63894.36
2019-05-09T08:04:38.606Z,63928.93
2019-05-09T08:07:05.088Z,63971.65
2019-05-09T08:09:31.335Z,63944.35
2019-05-09T08:11:58.746Z,63916.71
2019-05-09T08:14:25.212Z,63849.48
2019-05-09T08:16:51.444Z,63818.79
2019-05-09T08:19:18.165Z,63827.48
2019-05-09T08:21:44.521Z,63849.80
2019-05-09T08:24:10.780Z,63917.71
2019-05-09T08:26:39.334Z,63966.48
2019-05-09T08:29:05.179Z,63945.78
2019-05-09T08:31:31.424Z,63898.64
2019-05-09T08:33:59.437Z,64032.57
2019-05-09T08:36:27.993Z,63990.38
2019-05-09T08:38:53.973Z,63977.49
2019-05-09T08:41:20.223Z,63995.32
2019-05-09T08:43:48.382Z,63929.80
2019-05-09T08:46:14.587Z,63945.99
2019-05-09T08:48:40.824Z,63848.07
2019-05-09T08:51:11.380Z,63932.34
2019-05-09T08:53:38.151Z,63970.33
2019-05-09T08:56:04.562Z,64002.27
2019-05-09T08:58:30.792Z,64037.87
2019-05-09T09:01:03.914Z,64068.50
2019-05-09T09:03:25.200Z,64078.52
2019-05-09T09:05:51.481Z,64077.43
2019-05-09T09:08:18.442Z,64105.09
2019-05-09T09:10:44.876Z,64127.14
2019-05-09T09:13:11.123Z,64117.44
2019-05-09T09:16:02.484Z,64106.09
2019-05-09T09:18:05.545Z,64123.84
2019-05-09T09:20:31.784Z,64124.61
2019-05-09T09:22:58.465Z,64148.54
2019-05-09T09:25:24.890Z,64138.94
2019-05-09T09:27:51.296Z,64145.23
2019-05-09T09:30:24.721Z,64128.25
2019-05-09T09:32:47.955Z,64085.82
2019-05-09T09:35:14.216Z,64039.83
2019-05-09T09:37:48.481Z,64069.72
2019-05-09T09:40:08.969Z,64082.83
2019-05-09T09:42:35.253Z,64067.18
2019-05-09T09:45:01.606Z,64092.64
2019-05-09T09:47:28.606Z,64113.82
2019-05-09T09:49:55.471Z,64112.47
2019-05-09T09:52:23.234Z,64123.73
2019-05-09T09:54:49.470Z,64122.07
2019-05-09T09:57:18.817Z,64107.73
2019-05-09T09:59:48.290Z,64097.82
2019-05-09T10:02:15.634Z,64126.93
2019-05-09T10:04:41.893Z,64121.41
2019-05-09T10:07:08.862Z,64151.18
2019-05-09T10:09:35.400Z,64151.53
2019-05-09T10:12:01.650Z,64157.38
2019-05-09T10:14:32.760Z,64157.38
2019-05-09T10:17:03.647Z,64150.74
2019-05-09T10:19:34.287Z,64136.40
2019-05-09T10:22:08.509Z,64160.68
2019-05-09T10:24:35.031Z,64152.40
2019-05-09T10:27:09.088Z,64134.76
2019-05-09T10:29:35.512Z,64135.31
2019-05-09T10:32:02.652Z,64118.76
2019-05-09T10:34:28.976Z,64130.13
2019-05-09T10:36:55.253Z,64121.20
2019-05-09T10:39:21.505Z,64082.72
2019-05-09T10:41:48.289Z,64032.78
2019-05-09T10:44:18.918Z,64018.67
2019-05-09T10:46:53.764Z,63995.32
2019-05-09T10:49:15.121Z,63977.70
2019-05-09T10:51:41.365Z,63980.79
2019-05-09T10:54:08.286Z,63956.34
2019-05-09T10:56:34.643Z,63962.51
2019-05-09T10:59:00.881Z,64006.34
2019-05-09T11:01:29.521Z,64034.21
2019-05-09T11:03:55.282Z,64074.24
2019-05-09T11:06:21.542Z,64060.34
2019-05-09T11:08:48.109Z,64037.19
2019-05-09T11:11:14.542Z,64003.70
2019-05-09T11:13:40.873Z,64008.21
2019-05-09T11:16:07.679Z,64015.48
2019-05-09T11:18:34.055Z,63990.70
2019-05-09T11:21:00.300Z,63995.66
2019-05-09T11:23:28.999Z,64015.71
2019-05-09T11:25:54.692Z,63998.41
2019-05-09T11:28:20.942Z,64004.04
2019-05-09T11:30:47.729Z,64005.46
2019-05-09T11:33:14.023Z,64035.63
2019-05-09T11:35:40.261Z,64020.89
2019-05-09T11:38:08.434Z,64009.43
2019-05-09T11:40:34.657Z,64031.25
2019-05-09T11:43:00.898Z,64041.95
2019-05-09T11:45:28.073Z,64021.76
2019-05-09T11:47:54.499Z,64006.89
2019-05-09T11:50:23.250Z,64006.68
2019-05-09T11:52:49.210Z,64017.59
2019-05-09T11:55:29.847Z,64032.78
2019-05-09T11:57:43.741Z,64047.34
2019-05-09T12:00:10.690Z,64056.61
2019-05-09T12:02:38.489Z,64042.29
2019-05-09T12:05:05.374Z,64038.07
2019-05-09T12:07:31.615Z,64067.29
2019-05-09T12:09:58.917Z,64054.07
2019-05-09T12:12:28.124Z,64044.93
2019-05-09T12:14:53.557Z,64073.68
2019-05-09T12:17:19.970Z,64072.91
2019-05-09T12:19:48.756Z,64080.95
2019-05-09T12:22:14.492Z,64122.52
2019-05-09T12:24:40.745Z,64085.79
2019-05-09T12:27:08.711Z,64063.11
2019-05-09T12:29:35.135Z,64051.54
2019-05-09T12:32:01.385Z,64045.59
2019-05-09T12:34:27.789Z,64070.38
2019-05-09T12:36:54.075Z,64096.71
2019-05-09T12:39:20.310Z,64093.75
2019-05-09T12:41:48.432Z,64106.65
2019-05-09T12:44:14.699Z,64074.01
2019-05-09T12:46:40.977Z,64064.09
2019-05-09T12:49:08.991Z,63982.66
2019-05-09T12:51:37.519Z,64064.64
2019-05-09T12:54:03.503Z,64054.84
2019-05-09T12:56:29.748Z,64072.26
2019-05-09T12:58:57.957Z,64085.15
2019-05-09T13:01:24.189Z,64073.02
2019-05-09T13:03:50.435Z,64100.02
2019-05-09T13:06:20.099Z,64112.26
2019-05-09T13:08:44.877Z,64109.51
2019-05-09T13:11:11.130Z,64094.73
2019-05-09T13:13:40.846Z,64084.37
2019-05-09T13:16:10.918Z,64099.25
2019-05-09T13:18:53.656Z,64109.82
2019-05-09T13:21:19.900Z,64083.49
2019-05-09T13:23:51.889Z,64113.37
2019-05-09T13:26:14.312Z,64154.04
2019-05-09T13:28:40.569Z,64117.33
2019-05-09T13:31:08.266Z,64121.41
2019-05-09T13:33:34.681Z,64162.00
2019-05-09T13:36:00.916Z,64169.75
2019-05-09T13:38:27.667Z,64172.27
2019-05-09T13:40:54.208Z,64172.27
2019-05-09T13:43:20.501Z,64175.70
2019-05-09T13:45:46.736Z,64186.18
2019-05-09T13:48:27.066Z,64191.02
2019-05-09T13:50:41.160Z,64163.99
2019-05-09T13:53:07.695Z,64163.99
2019-05-09T13:55:34.076Z,64177.13
2019-05-09T13:58:00.321Z,64149.09
2019-05-09T14:00:28.561Z,64173.93
2019-05-09T14:02:54.751Z,64189.93
2019-05-09T14:05:20.992Z,64187.39
2019-05-09T14:07:49.152Z,64180.99
2019-05-09T14:10:17.718Z,64128.57
2019-05-09T14:12:43.560Z,64107.63
2019-05-09T14:15:09.826Z,64098.93
2019-05-09T14:17:48.377Z,64081.96
2019-05-09T14:20:05.427Z,64086.80
2019-05-09T14:22:33.414Z,64055.95
2019-05-09T14:24:59.873Z,64057.59
2019-05-09T14:27:28.368Z,64046.36
2019-05-09T14:29:54.310Z,64043.61
2019-05-09T14:32:20.542Z,64052.96
2019-05-09T14:34:48.192Z,64038.83
2019-05-09T14:37:14.747Z,64007.89
2019-05-09T14:39:54.868Z,64027.38
2019-05-09T14:42:09.355Z,64013.50
2019-05-09T14:44:37.624Z,63988.71
2019-05-09T14:47:03.734Z,63974.40
2019-05-09T14:49:40.236Z,63969.12
2019-05-09T14:51:58.125Z,63945.57
2019-05-09T14:54:24.365Z,63938.62
2019-05-09T14:56:50.616Z,63939.39
2019-05-09T14:59:18.629Z,63930.05
2019-05-09T15:01:45.005Z,63937.40
2019-05-09T15:04:11.252Z,63931.68
2019-05-09T15:06:37.563Z,63924.96
2019-05-09T15:09:08.066Z,63918.93
2019-05-09T15:11:34.139Z,63924.20
2019-05-09T15:14:00.377Z,63916.95
2019-05-09T15:16:28.261Z,63905.28
2019-05-09T15:18:54.754Z,63888.53
2019-05-09T15:21:21.002Z,63864.86
2019-05-09T15:23:48.150Z,63843.30
2019-05-09T15:26:14.595Z,63827.59
2019-05-09T15:28:40.821Z,63834.63
2019-05-09T15:31:08.849Z,63833.52
2019-05-09T15:33:37.458Z,63824.30
2019-05-09T15:36:03.345Z,63812.64
2019-05-09T15:38:29.592Z,63806.92
2019-05-09T15:40:55.916Z,63805.15
2019-05-09T15:43:22.226Z,63791.20
2019-05-09T15:45:53.241Z,63792.17
2019-05-09T15:48:19.475Z,63776.58
2019-05-09T15:50:47.599Z,63766.14
2019-05-09T15:53:13.872Z,63764.26
2019-05-09T15:55:40.115Z,63765.36
2019-05-09T15:58:06.351Z,63767.99
2019-05-09T16:00:34.248Z,63762.07
2019-05-09T16:03:00.527Z,63748.64
2019-05-09T16:05:26.766Z,63751.61
2019-05-09T16:07:53.016Z,63746.66
2019-05-09T16:10:19.243Z,63749.63
2019-05-09T16:12:45.492Z,63746.45
2019-05-09T16:15:11.821Z,63738.55
2019-05-09T16:17:39.401Z,63725.35
2019-05-09T16:20:08.416Z,63722.81
2019-05-09T16:22:34.475Z,63716.98
2019-05-09T16:25:00.720Z,63716.11
2019-05-09T16:27:26.975Z,63715.46
2019-05-09T16:29:53.216Z,63718.64
2019-05-09T16:32:19.447Z,63717.21
2019-05-09T16:34:45.692Z,63708.12
2019-05-09T16:37:11.953Z,63708.00
2019-05-09T16:39:38.194Z,63703.61
2019-05-09T16:42:04.426Z,63701.39
2019-05-09T16:44:30.677Z,63701.28
2019-05-09T16:46:57.676Z,63650.00
2019-05-09T16:49:25.881Z,63700.41
2019-05-09T16:51:52.230Z,63698.98
2019-05-09T16:54:21.352Z,63690.75
2019-05-09T16:56:47.596Z,63685.25
2019-05-09T16:59:13.845Z,63674.15
2019-05-09T17:01:41.878Z,63670.31
2019-05-09T17:04:08.325Z,63667.57
2019-05-09T17:06:34.596Z,63660.32
2019-05-09T17:09:00.828Z,63650.21
2019-05-09T17:11:27.799Z,63641.12
2019-05-09T17:13:54.397Z,63643.63
2019-05-09T17:16:20.669Z,63634.77
2019-05-09T17:18:48.654Z,63624.11
2019-05-09T17:21:32.056Z,63618.84
2019-05-09T17:23:59.384Z,63606.99
2019-05-09T17:26:28.208Z,63603.79
2019-05-09T17:28:53.777Z,63592.04
2019-05-09T17:31:20.035Z,63573.61
2019-05-09T17:33:48.535Z,63569.66
2019-05-09T17:36:14.429Z,63556.91
2019-05-09T17:38:40.657Z,63545.09
2019-05-09T17:41:08.274Z,63543.12
2019-05-09T17:43:34.689Z,63526.77
2019-05-09T17:46:00.963Z,63510.01
2019-05-09T17:48:28.566Z,63493.55
2019-05-09T17:50:58.348Z,63472.94
2019-05-09T17:53:24.594Z,63453.98
2019-05-09T17:55:51.927Z,63449.27
2019-05-09T17:58:29.124Z,63445.00
2019-05-09T18:00:48.372Z,63436.45
2019-05-09T18:03:14.536Z,63432.41
2019-05-09T18:05:40.832Z,63421.11
2019-05-09T18:08:08.060Z,63410.03
2019-05-09T18:10:34.530Z,63400.85
2019-05-09T18:13:00.781Z,63388.71
2019-05-09T18:15:28.251Z,63385.18
2019-05-09T18:17:54.663Z,63381.54
2019-05-09T18:20:20.899Z,63376.30
2019-05-09T18:22:47.884Z,63372.68
2019-05-09T18:25:14.795Z,63369.95
2019-05-09T18:27:41.043Z,63366.55
2019-05-09T18:30:07.900Z,63362.16
2019-05-09T18:32:42.994Z,63350.78
2019-05-09T18:35:12.150Z,63341.83
2019-05-09T18:37:38.371Z,63338.41
2019-05-09T18:40:05.126Z,63329.98
2019-05-09T18:42:31.388Z,63327.46
2019-05-09T18:44:59.652Z,63317.82
2019-05-09T18:47:27.834Z,63306.03
2019-05-09T18:49:53.946Z,63304.26
2019-05-09T18:52:20.180Z,63296.62
2019-05-09T18:54:46.635Z,63291.34
2019-05-09T18:57:12.974Z,63283.07
2019-05-09T18:59:39.233Z,63283.91
2019-05-09T19:02:05.475Z,63283.01
2019-05-09T19:04:31.720Z,63274.74
2019-05-09T19:06:57.959Z,63269.05
2019-05-09T19:09:24.201Z,63266.99
2019-05-09T19:11:50.601Z,63264.00
2019-05-09T19:14:18.703Z,63255.79
2019-05-09T19:17:03.892Z,63250.45
2019-05-09T19:19:31.934Z,63242.47
2019-05-09T19:22:04.663Z,63127.36
2019-05-09T19:24:28.137Z,63225.85
2019-05-09T19:26:54.356Z,63224.51
2019-05-09T19:29:20.582Z,63218.07
2019-05-09T19:31:46.830Z,63206.91
2019-05-09T19:34:13.138Z,63202.13
2019-05-09T19:36:39.413Z,63202.01
2019-05-09T19:39:07.041Z,63197.43
2019-05-09T19:41:34.179Z,63193.60
2019-05-09T19:44:00.418Z,63195.31
2019-05-09T19:46:26.673Z,63185.95
2019-05-09T19:48:52.905Z,63181.57
2019-05-09T19:51:19.161Z,63175.02
2019-05-09T19:53:45.380Z,63174.14
2019-05-09T19:56:11.625Z,63170.52
2019-05-09T19:58:37.868Z,63166.89
2019-05-09T20:01:04.101Z,63158.96
2019-05-09T20:03:30.331Z,63159.38
2019-05-09T20:05:56.572Z,63156.52
2019-05-09T20:08:22.852Z,63149.01
2019-05-09T20:11:06.292Z,63148.86
2019-05-09T20:13:36.153Z,63140.18
2019-05-09T20:16:02.383Z,63142.86
2019-05-09T20:18:28.632Z,63137.53
2019-05-09T20:20:54.863Z,63134.46
2019-05-09T20:23:21.117Z,63128.23
2019-05-09T20:25:47.345Z,63126.26
2019-05-09T20:28:13.581Z,63124.29
2019-05-09T20:30:39.824Z,63118.00
2019-05-09T20:33:06.067Z,63114.93
2019-05-09T20:35:32.302Z,63109.43
2019-05-09T20:37:58.553Z,63109.66
2019-05-09T20:40:24.774Z,63102.01
2019-05-09T20:42:51.052Z,63101.34
2019-05-09T20:45:17.300Z,63100.04
2019-05-09T20:47:43.537Z,63091.76
2019-05-09T20:50:09.966Z,63084.11
2019-05-09T20:52:36.217Z,63085.07
2019-05-09T20:55:03.657Z,63083.56
2019-05-09T20:57:29.879Z,63084.74
2019-05-09T20:59:56.139Z,63081.27
2019-05-09T21:02:22.346Z,63078.52
2019-05-09T21:04:48.618Z,63074.92
2019-05-09T21:07:14.815Z,63069.57
2019-05-09T21:09:41.062Z,63069.57
2019-05-09T21:12:10.616Z,63066.85
2019-05-09T21:14:35.440Z,63068.35
2019-05-09T21:17:01.668Z,63062.70
2019-05-09T21:19:27.943Z,63059.43
2019-05-09T21:21:54.194Z,63050.68
2019-05-09T21:24:20.464Z,63045.44
2019-05-09T21:26:46.703Z,63033.55
2019-05-09T21:29:12.941Z,63030.82
2019-05-09T21:31:39.180Z,63022.43
2019-05-09T21:34:05.431Z,63022.51
2019-05-09T21:36:31.659Z,63019.36
2019-05-09T21:38:57.926Z,63023.73
2019-05-09T21:41:24.165Z,63029.61
2019-05-09T21:43:50.405Z,63023.96
2019-05-09T21:46:16.663Z,63021.01
2019-05-09T21:48:42.910Z,63020.54
2019-05-09T21:51:09.155Z,63009.97
2019-05-09T21:53:41.011Z,62987.40
2019-05-09T21:56:03.645Z,62975.59
2019-05-09T21:58:29.877Z,62958.62
2019-05-09T22:00:58.870Z,62951.40
2019-05-09T22:03:25.313Z,62943.97
2019-05-09T22:05:51.552Z,62932.19
2019-05-09T22:08:17.781Z,62919.56
2019-05-09T22:10:45.823Z,62906.37
2019-05-09T22:13:12.044Z,62889.60
2019-05-09T22:15:38.296Z,62873.59
2019-05-09T22:18:04.523Z,62868.21
2019-05-09T22:20:30.763Z,62851.59
2019-05-09T22:22:57.007Z,62843.42
2019-05-09T22:25:23.267Z,62837.64
2019-05-09T22:27:49.513Z,62829.88
2019-05-09T22:30:16.291Z,62810.39
2019-05-09T22:32:42.518Z,62797.54
2019-05-09T22:35:09.254Z,62791.30
2019-05-09T22:37:35.504Z,62777.60
2019-05-09T22:40:01.944Z,62766.93
2019-05-09T22:42:28.199Z,62761.28
2019-05-09T22:44:54.443Z,62749.52
2019-05-09T22:47:20.686Z,62737.89
2019-05-09T22:49:46.913Z,62727.68
2019-05-09T22:52:13.168Z,62718.10
2019-05-09T22:54:39.403Z,62705.10
2019-05-09T22:57:05.656Z,62689.81
2019-05-09T22:59:31.889Z,62678.04
2019-05-09T23:01:58.166Z,62664.13
2019-05-09T23:04:27.433Z,62650.86
2019-05-09T23:06:53.697Z,62640.87
2019-05-09T23:09:19.926Z,62638.02
2019-05-09T23:11:46.166Z,62633.47
2019-05-09T23:14:12.419Z,62623.35
2019-05-09T23:16:39.965Z,62610.64
2019-05-09T23:19:06.214Z,62603.57
2019-05-09T23:21:32.477Z,62603.99
2019-05-09T23:24:00.530Z,62595.22
2019-05-09T23:26:26.753Z,62583.06
2019-05-09T23:28:53.003Z,62572.55
2019-05-09T23:34:09.644Z,62561.88
2019-05-09T23:36:35.895Z,62553.53
2019-05-09T23:39:09.731Z,62554.69
2019-05-09T23:41:35.960Z,62551.76
2019-05-09T23:44:02.212Z,62548.30
2019-05-09T23:46:28.470Z,62550.34
2019-05-09T23:48:54.744Z,62545.59
2019-05-09T23:51:21.672Z,62539.83
2019-05-09T23:53:53.757Z,62530.93
2019-05-09T23:56:38.625Z,62522.45
2019-05-09T23:59:23.151Z,62512.60
